Time;durP1;ratioP1;P1;durP2;ratioP2;P2;SDS_P1;SDS_P2;PMS_P1;PMS_P2;Temp;Humidity;BMP_temperature;BMP_pressure;BME280_temperature;BME280_humidity;BME280_pressure;Samples;Min_cycle;Max_cycle;Signal;HPM_P1;HPM_P2
2023/10/20 00:01:41;;;;;;;4.45;2.08;;;;;;;;;;5108408;28;20422;-59
2023/10/20 00:04:07;;;;;;;3.13;2.05;;;;;;;;;;5089158;28;20040;-59
2023/10/20 00:06:33;;;;;;;2.40;1.80;;;;;;;;;;5107011;28;20038;-59
2023/10/20 00:08:59;;;;;;;2.83;2.17;;;;;;;;;;5104554;28;20031;-59
2023/10/20 00:11:25;;;;;;;3.13;2.42;;;;;;;;;;5107622;28;20047;-59
2023/10/20 00:13:52;;;;;;;4.38;2.17;;;;;;;;;;5107437;28;20047;-60
2023/10/20 00:16:28;;;;;;;3.63;2.20;;;;;;;;;;5107433;28;20051;-58
2023/10/20 00:18:56;;;;;;;3.65;2.00;;;;;;;;;;5109262;27;20039;-58
2023/10/20 00:21:24;;;;;;;2.13;1.67;;;;;;;;;;5109487;28;20032;-59
2023/10/20 00:23:50;;;;;;;2.72;1.80;;;;;;;;;;5104295;28;20040;-59
2023/10/20 00:26:16;;;;;;;2.47;2.08;;;;;;;;;;5110344;27;20438;-58
2023/10/20 00:28:44;;;;;;;3.75;1.80;;;;;;;;;;5107442;28;20038;-59
2023/10/20 00:31:11;;;;;;;2.45;1.67;;;;;;;;;;5092479;28;20035;-59
2023/10/20 00:33:39;;;;;;;4.68;1.70;;;;;;;;;;5107421;28;20128;-59
2023/10/20 00:36:08;;;;;;;2.83;1.73;;;;;;;;;;5107732;28;20027;-58
2023/10/20 00:38:34;;;;;;;2.03;1.67;;;;;;;;;;5088545;28;20518;-58
2023/10/20 00:41:01;;;;;;;2.60;1.92;;;;;;;;;;5090698;28;20035;-59
2023/10/20 00:43:37;;;;;;;2.03;1.45;;;;;;;;;;5093783;28;20043;-58
2023/10/20 00:46:07;;;;;;;3.38;1.90;;;;;;;;;;5087984;28;20414;-59
2023/10/20 00:48:35;;;;;;;2.40;1.80;;;;;;;;;;5099935;28;20032;-58
2023/10/20 00:51:02;;;;;;;2.97;1.70;;;;;;;;;;5084057;28;20051;-59
2023/10/20 00:53:33;;;;;;;;;;;;;;;;;;5090737;28;20042;-59
2023/10/20 00:56:00;;;;;;;4.05;1.85;;;;;;;;;;5109578;27;20383;-58
2023/10/20 00:58:28;;;;;;;5.40;2.70;;;;;;;;;;5088470;28;20039;-58
2023/10/20 01:00:54;;;;;;;4.10;1.98;;;;;;;;;;5108636;28;20028;-58
2023/10/20 01:03:22;;;;;;;2.70;2.00;;;;;;;;;;5107905;28;20391;-58
2023/10/20 01:05:48;;;;;;;2.58;1.77;;;;;;;;;;5102120;28;20562;-58
2023/10/20 01:08:15;;;;;;;2.97;1.90;;;;;;;;;;5108072;28;20063;-58
2023/10/20 01:10:41;;;;;;;2.45;2.00;;;;;;;;;;5107035;28;20519;-58
2023/10/20 01:13:08;;;;;;;3.17;2.00;;;;;;;;;;5108034;28;20054;-59
2023/10/20 01:15:35;;;;;;;3.10;2.00;;;;;;;;;;5087651;28;20040;-58
2023/10/20 01:18:01;;;;;;;3.13;2.20;;;;;;;;;;5106620;28;20054;-58
2023/10/20 01:20:28;;;;;;;3.08;2.42;;;;;;;;;;5088357;28;20050;-58
2023/10/20 01:22:54;;;;;;;6.07;2.42;;;;;;;;;;5088219;28;20182;-58
2023/10/20 01:25:22;;;;;;;4.82;2.38;;;;;;;;;;5106989;28;20035;-59
2023/10/20 01:27:48;;;;;;;2.80;2.40;;;;;;;;;;5109620;27;20038;-57
2023/10/20 01:30:14;;;;;;;5.63;3.05;;;;;;;;;;5110579;27;20035;-58
2023/10/20 01:32:41;;;;;;;3.22;2.55;;;;;;;;;;5107133;28;20489;-59
2023/10/20 01:35:08;;;;;;;3.47;2.50;;;;;;;;;;5106581;28;20042;-59
2023/10/20 01:37:34;;;;;;;5.93;3.08;;;;;;;;;;5117065;27;20039;-59
2023/10/20 01:40:00;;;;;;;5.03;3.58;;;;;;;;;;5108661;27;20062;-59
2023/10/20 01:42:26;;;;;;;5.78;3.50;;;;;;;;;;5111904;27;20038;-59
2023/10/20 01:44:52;;;;;;;6.55;3.50;;;;;;;;;;5102413;28;20039;-59
2023/10/20 01:47:18;;;;;;;8.63;3.35;;;;;;;;;;5098519;28;20040;-57
2023/10/20 01:49:44;;;;;;;6.85;3.20;;;;;;;;;;5081310;28;20036;-57
2023/10/20 01:52:10;;;;;;;6.10;3.67;;;;;;;;;;5090096;28;20035;-57
2023/10/20 01:54:36;;;;;;;5.38;3.45;;;;;;;;;;5087340;28;20506;-58
2023/10/20 01:57:03;;;;;;;3.85;3.15;;;;;;;;;;5106883;28;20031;-58
2023/10/20 01:59:29;;;;;;;4.95;3.03;;;;;;;;;;5088781;28;20042;-58
2023/10/20 02:01:55;;;;;;;4.15;2.80;;;;;;;;;;5112906;27;20032;-58
2023/10/20 02:04:21;;;;;;;3.95;3.17;;;;;;;;;;5086274;28;20550;-58
2023/10/20 02:06:48;;;;;;;7.82;3.80;;;;;;;;;;5106708;28;20054;-58
2023/10/20 02:09:14;;;;;;;6.00;3.42;;;;;;;;;;5087513;28;20491;-58
2023/10/20 02:11:40;;;;;;;3.42;2.90;;;;;;;;;;5107045;28;20042;-58
2023/10/20 02:14:06;;;;;;;3.95;2.42;;;;;;;;;;5088335;28;20031;-58
2023/10/20 02:16:33;;;;;;;4.68;2.88;;;;;;;;;;5087578;28;20040;-60
2023/10/20 02:18:59;;;;;;;6.13;2.63;;;;;;;;;;5105754;28;20050;-59
2023/10/20 02:21:25;;;;;;;4.45;2.28;;;;;;;;;;5088912;28;20036;-59
2023/10/20 02:23:52;;;;;;;10.30;3.00;;;;;;;;;;5105109;28;20039;-59
2023/10/20 02:26:19;;;;;;;3.50;2.80;;;;;;;;;;5087410;28;20513;-59
2023/10/20 02:28:45;;;;;;;4.40;2.90;;;;;;;;;;5084670;28;20063;-59
2023/10/20 02:31:14;;;;;;;3.85;2.53;;;;;;;;;;5113691;28;20442;-59
2023/10/20 02:33:40;;;;;;;4.60;2.60;;;;;;;;;;5083663;28;20433;-59
2023/10/20 02:36:06;;;;;;;6.38;3.03;;;;;;;;;;5081427;28;20035;-60
2023/10/20 02:38:32;;;;;;;6.45;3.20;;;;;;;;;;5104331;28;20059;-59
2023/10/20 02:40:59;;;;;;;4.90;2.78;;;;;;;;;;5107355;28;20035;-59
2023/10/20 02:43:26;;;;;;;5.13;3.28;;;;;;;;;;5106799;28;20044;-59
2023/10/20 02:45:54;;;;;;;6.38;3.55;;;;;;;;;;5098644;28;20035;-59
2023/10/20 02:48:22;;;;;;;6.25;3.90;;;;;;;;;;5083549;28;20506;-59
2023/10/20 02:50:48;;;;;;;5.35;4.10;;;;;;;;;;5106509;28;20040;-59
2023/10/20 02:53:15;;;;;;;5.60;3.95;;;;;;;;;;5106774;28;20039;-59
2023/10/20 02:55:44;;;;;;;5.60;3.58;;;;;;;;;;5104992;28;20032;-59
2023/10/20 02:58:12;;;;;;;5.40;3.90;;;;;;;;;;5099522;28;20044;-58
2023/10/20 03:00:42;;;;;;;9.73;3.80;;;;;;;;;;5104111;28;20052;-58
2023/10/20 03:03:13;;;;;;;6.43;3.90;;;;;;;;;;5088033;28;20036;-58
2023/10/20 03:05:45;;;;;;;6.72;4.10;;;;;;;;;;5088378;28;20051;-58
2023/10/20 03:08:11;;;;;;;7.18;4.00;;;;;;;;;;5099895;28;20052;-58
2023/10/20 03:10:41;;;;;;;5.63;4.07;;;;;;;;;;5106716;28;20035;-58
2023/10/20 03:13:07;;;;;;;7.65;4.88;;;;;;;;;;5106630;28;20529;-58
2023/10/20 03:15:33;;;;;;;9.82;5.07;;;;;;;;;;5104583;28;20028;-58
2023/10/20 03:18:00;;;;;;;9.27;4.82;;;;;;;;;;5106098;28;20039;-59
2023/10/20 03:20:30;;;;;;;11.20;5.75;;;;;;;;;;5107159;28;20039;-58
2023/10/20 03:22:56;;;;;;;7.55;5.50;;;;;;;;;;5071952;28;20105;-59
2023/10/20 03:25:22;;;;;;;9.75;6.43;;;;;;;;;;5110885;27;20047;-59
2023/10/20 03:27:49;;;;;;;9.20;5.90;;;;;;;;;;5090120;28;20063;-58
2023/10/20 03:30:18;;;;;;;9.10;6.53;;;;;;;;;;5092152;28;20054;-58
2023/10/20 03:32:50;;;;;;;9.20;6.22;;;;;;;;;;5072115;28;20040;-58
2023/10/20 03:35:16;;;;;;;10.77;7.05;;;;;;;;;;5103799;28;20074;-59
2023/10/20 03:37:43;;;;;;;12.52;7.40;;;;;;;;;;5061352;28;20056;-58
2023/10/20 03:40:16;;;;;;;9.95;7.35;;;;;;;;;;5110021;28;20035;-59
2023/10/20 03:42:43;;;;;;;10.70;7.75;;;;;;;;;;5108518;28;20050;-58
2023/10/20 03:45:14;;;;;;;12.88;8.48;;;;;;;;;;5099405;28;20052;-59
2023/10/20 03:47:40;;;;;;;12.43;9.23;;;;;;;;;;5087862;28;20360;-58
2023/10/20 03:50:18;;;;;;;13.35;9.73;;;;;;;;;;5091782;28;20491;-58
2023/10/20 03:52:48;;;;;;;18.45;10.45;;;;;;;;;;5105966;28;20043;-58
2023/10/20 03:55:15;;;;;;;14.70;10.75;;;;;;;;;;5107802;28;20656;-58
2023/10/20 03:57:42;;;;;;;14.43;10.80;;;;;;;;;;5088932;28;20541;-60
2023/10/20 04:00:27;;;;;;;16.65;9.80;;;;;;;;;;5108086;28;20032;-60
2023/10/20 04:02:55;;;;;;;17.75;11.63;;;;;;;;;;5107746;28;20374;-59
2023/10/20 04:05:21;;;;;;;15.70;10.02;;;;;;;;;;5109924;27;20036;-60
2023/10/20 04:07:48;;;;;;;17.85;11.40;;;;;;;;;;5091585;28;20032;-58
2023/10/20 04:10:14;;;;;;;21.38;10.93;;;;;;;;;;5108948;28;20052;-57
2023/10/20 04:12:41;;;;;;;20.08;10.68;;;;;;;;;;5108399;28;20551;-58
2023/10/20 04:15:13;;;;;;;15.05;9.43;;;;;;;;;;5115207;27;20040;-59
2023/10/20 04:17:41;;;;;;;14.65;9.85;;;;;;;;;;5108056;28;20035;-58
2023/10/20 04:20:15;;;;;;;11.93;8.20;;;;;;;;;;5109090;28;20042;-60
2023/10/20 04:22:43;;;;;;;11.38;8.25;;;;;;;;;;5107671;28;20027;-58
2023/10/20 04:25:12;;;;;;;10.80;8.18;;;;;;;;;;5101143;28;20055;-58
2023/10/20 04:27:57;;;;;;;10.68;7.00;;;;;;;;;;5090537;28;20046;-59
2023/10/20 04:59:45;;;;;;;13.02;8.40;;;;;;;;;;5111778;27;20047;-58
2023/10/20 05:02:33;;;;;;;13.65;9.50;;;;;;;;;;5108562;28;20039;-58
2023/10/20 05:05:01;;;;;;;14.73;9.05;;;;;;;;;;5070436;28;20052;-59
2023/10/20 05:07:28;;;;;;;14.20;9.27;;;;;;;;;;5105381;28;20043;-58
2023/10/20 05:09:54;;;;;;;18.58;11.30;;;;;;;;;;5106260;28;20521;-59
2023/10/20 05:12:20;;;;;;;18.60;11.57;;;;;;;;;;5105984;28;20057;-58
2023/10/20 05:14:49;;;;;;;16.75;9.98;;;;;;;;;;5104954;28;20494;-59
2023/10/20 05:17:17;;;;;;;14.75;9.90;;;;;;;;;;5088420;28;20042;-59
2023/10/20 05:19:44;;;;;;;14.93;10.35;;;;;;;;;;5106109;28;20498;-59
2023/10/20 05:22:10;;;;;;;14.98;9.80;;;;;;;;;;5108189;28;20043;-58
2023/10/20 05:24:36;;;;;;;11.80;8.52;;;;;;;;;;5105808;28;20048;-59
2023/10/20 05:27:02;;;;;;;12.30;8.70;;;;;;;;;;5105813;28;20047;-59
2023/10/20 05:29:28;;;;;;;13.23;8.77;;;;;;;;;;5107992;28;20040;-58
2023/10/20 05:31:54;;;;;;;13.48;8.77;;;;;;;;;;5107303;28;20517;-58
2023/10/20 05:34:20;;;;;;;12.82;7.60;;;;;;;;;;5106812;28;20035;-58
2023/10/20 05:36:46;;;;;;;12.80;8.50;;;;;;;;;;5106458;28;20395;-59
2023/10/20 05:39:13;;;;;;;9.77;6.95;;;;;;;;;;5098520;28;20036;-58
2023/10/20 05:41:40;;;;;;;14.45;8.48;;;;;;;;;;5104175;28;20034;-59
2023/10/20 05:44:11;;;;;;;12.38;8.10;;;;;;;;;;5101408;28;20031;-59
2023/10/20 05:46:40;;;;;;;11.43;8.15;;;;;;;;;;5105898;28;20063;-59
2023/10/20 05:49:08;;;;;;;13.13;7.05;;;;;;;;;;5106491;28;20494;-59
2023/10/20 05:51:34;;;;;;;15.32;10.10;;;;;;;;;;5106905;28;20518;-59
2023/10/20 05:54:00;;;;;;;12.38;7.82;;;;;;;;;;5103548;28;20396;-59
2023/10/20 05:56:26;;;;;;;14.25;8.60;;;;;;;;;;5106202;28;20051;-59
2023/10/20 05:58:52;;;;;;;13.55;8.52;;;;;;;;;;5106924;27;20599;-58
2023/10/20 06:01:18;;;;;;;12.82;8.73;;;;;;;;;;5108136;28;20250;-58
2023/10/20 06:03:44;;;;;;;12.65;7.07;;;;;;;;;;5104472;28;20052;-59
2023/10/20 06:06:11;;;;;;;10.40;6.32;;;;;;;;;;5105185;28;20047;-64
2023/10/20 06:08:37;;;;;;;10.88;7.07;;;;;;;;;;5104905;28;20491;-59
2023/10/20 06:11:04;;;;;;;8.73;5.97;;;;;;;;;;5107634;28;20035;-60
2023/10/20 06:13:32;;;;;;;10.63;5.85;;;;;;;;;;5106715;28;20047;-60
2023/10/20 06:16:08;;;;;;;10.77;6.47;;;;;;;;;;5102166;28;20048;-59
2023/10/20 06:18:38;;;;;;;7.57;5.53;;;;;;;;;;5103458;28;20043;-59
2023/10/20 06:21:05;;;;;;;8.77;6.63;;;;;;;;;;5107107;28;20040;-58
2023/10/20 06:23:32;;;;;;;9.15;4.90;;;;;;;;;;5102833;28;20031;-58
2023/10/20 06:25:58;;;;;;;9.82;5.28;;;;;;;;;;5097439;28;20070;-60
2023/10/20 06:28:24;;;;;;;12.00;6.60;;;;;;;;;;5079993;28;20434;-60
2023/10/20 06:30:51;;;;;;;8.60;5.00;;;;;;;;;;5104726;28;20051;-60
2023/10/20 06:33:17;;;;;;;5.15;4.00;;;;;;;;;;5105405;28;20480;-61
2023/10/20 06:35:53;;;;;;;6.53;4.55;;;;;;;;;;5087791;28;20035;-59
2023/10/20 06:38:30;;;;;;;7.28;4.60;;;;;;;;;;5101076;28;20550;-59
2023/10/20 06:40:57;;;;;;;11.43;5.22;;;;;;;;;;5100174;28;20040;-59
2023/10/20 06:43:24;;;;;;;9.40;6.53;;;;;;;;;;5098064;28;20063;-59
2023/10/20 06:45:59;;;;;;;10.25;6.38;;;;;;;;;;5086465;28;20036;-59
2023/10/20 06:48:28;;;;;;;10.57;6.53;;;;;;;;;;5106669;28;20046;-59
2023/10/20 06:50:55;;;;;;;;;;;;;;;;;;5087345;28;20418;-59
2023/10/20 06:53:21;;;;;;;10.02;6.20;;;;;;;;;;5106027;28;19919;-59
2023/10/20 06:55:48;;;;;;;12.65;6.57;;;;;;;;;;5104579;28;20032;-59
2023/10/20 06:58:18;;;;;;;10.95;6.60;;;;;;;;;;5092748;28;20040;-59
2023/10/20 07:00:45;;;;;;;10.15;6.47;;;;;;;;;;5110491;28;20042;-59
2023/10/20 07:03:12;;;;;;;11.60;6.40;;;;;;;;;;5104679;28;20048;-59
2023/10/20 07:05:42;;;;;;;10.98;6.25;;;;;;;;;;5107986;28;20028;-59
2023/10/20 07:08:08;;;;;;;10.93;6.68;;;;;;;;;;5107842;28;20407;-59
2023/10/20 07:10:38;;;;;;;9.77;6.70;;;;;;;;;;5091278;28;20050;-59
2023/10/20 07:13:10;;;;;;;10.77;6.63;;;;;;;;;;5092457;28;20043;-59
2023/10/20 07:15:37;;;;;;;12.00;7.90;;;;;;;;;;5106987;27;20038;-59
2023/10/20 07:18:05;;;;;;;12.20;7.53;;;;;;;;;;5090558;28;20044;-59
2023/10/20 07:20:33;;;;;;;11.80;6.50;;;;;;;;;;5110535;28;20032;-59
2023/10/20 07:22:59;;;;;;;10.13;6.85;;;;;;;;;;5108314;28;20047;-59
2023/10/20 07:25:28;;;;;;;12.50;7.10;;;;;;;;;;5108478;28;20075;-59
2023/10/20 07:27:54;;;;;;;10.52;7.10;;;;;;;;;;5108449;28;20057;-59
2023/10/20 07:30:20;;;;;;;11.90;7.15;;;;;;;;;;5110477;28;20395;-59
2023/10/20 07:32:47;;;;;;;8.63;6.60;;;;;;;;;;5101291;28;20048;-59
2023/10/20 07:35:13;;;;;;;10.85;7.55;;;;;;;;;;5107109;28;20044;-59
2023/10/20 07:37:39;;;;;;;12.07;7.90;;;;;;;;;;5101765;28;20036;-59
2023/10/20 07:40:07;;;;;;;16.50;10.40;;;;;;;;;;5103030;28;20055;-59
2023/10/20 07:42:33;;;;;;;16.83;11.20;;;;;;;;;;5102415;28;20031;-59
2023/10/20 07:45:00;;;;;;;18.67;12.05;;;;;;;;;;5107956;28;20036;-59
2023/10/20 07:47:27;;;;;;;20.35;12.80;;;;;;;;;;5108656;28;20027;-59
2023/10/20 07:49:57;;;;;;;19.88;12.10;;;;;;;;;;5107629;28;20043;-59
2023/10/20 07:52:25;;;;;;;17.02;12.30;;;;;;;;;;5109572;28;20051;-59
2023/10/20 07:54:54;;;;;;;18.02;12.15;;;;;;;;;;5106019;28;20056;-59
2023/10/20 07:57:22;;;;;;;16.58;11.75;;;;;;;;;;5107950;28;20040;-59
2023/10/20 07:59:48;;;;;;;16.95;11.80;;;;;;;;;;5109018;28;20066;-58
2023/10/20 08:02:15;;;;;;;18.00;12.38;;;;;;;;;;5109036;28;20049;-58
2023/10/20 08:04:41;;;;;;;17.60;12.75;;;;;;;;;;5105053;27;20036;-59
2023/10/20 08:07:10;;;;;;;20.95;13.40;;;;;;;;;;5107410;28;20050;-58
2023/10/20 08:09:37;;;;;;;22.63;13.18;;;;;;;;;;5087844;28;20408;-58
2023/10/20 08:12:04;;;;;;;18.42;13.60;;;;;;;;;;5108937;28;20028;-59
2023/10/20 08:14:30;;;;;;;21.67;13.52;;;;;;;;;;5107891;28;20047;-58
2023/10/20 08:16:56;;;;;;;19.05;13.20;;;;;;;;;;5107810;28;20027;-59
2023/10/20 08:19:23;;;;;;;19.80;13.00;;;;;;;;;;5107568;28;20047;-59
2023/10/20 08:21:49;;;;;;;21.23;13.35;;;;;;;;;;5108698;28;20031;-59
2023/10/20 08:24:15;;;;;;;17.48;12.73;;;;;;;;;;5107350;28;20031;-59
2023/10/20 08:26:42;;;;;;;17.20;12.10;;;;;;;;;;5122171;27;20058;-59
2023/10/20 08:29:11;;;;;;;17.48;12.38;;;;;;;;;;5090715;28;20414;-59
2023/10/20 08:31:38;;;;;;;17.40;11.27;;;;;;;;;;5109268;28;20049;-60
2023/10/20 08:34:04;;;;;;;16.50;11.73;;;;;;;;;;5105227;28;20647;-59
2023/10/20 08:36:31;;;;;;;17.42;11.70;;;;;;;;;;5103123;28;20040;-59
2023/10/20 08:39:01;;;;;;;15.13;11.45;;;;;;;;;;5104513;28;20042;-59
2023/10/20 08:41:27;;;;;;;15.43;11.25;;;;;;;;;;5102149;28;20031;-59
2023/10/20 08:43:55;;;;;;;16.58;12.07;;;;;;;;;;5105608;28;20078;-59
2023/10/20 08:46:24;;;;;;;18.67;12.98;;;;;;;;;;5089176;28;20067;-59
2023/10/20 08:48:52;;;;;;;19.67;13.07;;;;;;;;;;5106666;28;20050;-59
2023/10/20 08:51:18;;;;;;;17.20;12.70;;;;;;;;;;5090763;28;20526;-59
2023/10/20 08:53:45;;;;;;;18.63;12.32;;;;;;;;;;5086102;28;20062;-59
2023/10/20 08:56:12;;;;;;;17.80;9.85;;;;;;;;;;5099404;28;20038;-59
2023/10/20 08:58:39;;;;;;;15.15;10.90;;;;;;;;;;5108140;28;20028;-59
2023/10/20 09:01:05;;;;;;;17.52;11.52;;;;;;;;;;5107574;28;20031;-59
2023/10/20 09:03:51;;;;;;;17.52;11.95;;;;;;;;;;5106780;28;20027;-59
2023/10/20 09:06:18;;;;;;;18.08;12.23;;;;;;;;;;5106727;28;20063;-59
2023/10/20 09:08:47;;;;;;;16.70;11.07;;;;;;;;;;5104448;28;20489;-59
2023/10/20 09:11:13;;;;;;;14.02;10.80;;;;;;;;;;5101427;28;20042;-59
2023/10/20 09:13:41;;;;;;;14.90;10.80;;;;;;;;;;5085420;28;20043;-59
2023/10/20 09:16:13;;;;;;;16.83;11.00;;;;;;;;;;5115393;27;20495;-59
2023/10/20 09:18:51;;;;;;;17.77;11.07;;;;;;;;;;5088864;28;20032;-59
2023/10/20 09:21:19;;;;;;;18.08;10.73;;;;;;;;;;5102073;28;20043;-59
2023/10/20 09:24:02;;;;;;;14.98;10.57;;;;;;;;;;5105415;28;20044;-59
2023/10/20 09:26:34;;;;;;;16.25;10.45;;;;;;;;;;5106263;28;20052;-58
2023/10/20 09:29:01;;;;;;;13.73;9.88;;;;;;;;;;5105861;28;20506;-59
2023/10/20 09:31:28;;;;;;;14.60;9.48;;;;;;;;;;5108128;28;20042;-59
2023/10/20 09:33:54;;;;;;;13.77;9.95;;;;;;;;;;5105322;28;20051;-59
2023/10/20 09:36:23;;;;;;;12.82;9.80;;;;;;;;;;5099446;28;20050;-59
2023/10/20 09:38:54;;;;;;;14.55;10.07;;;;;;;;;;5080810;28;20023;-59
2023/10/20 09:41:24;;;;;;;12.88;10.00;;;;;;;;;;5107195;28;20052;-58
2023/10/20 09:43:53;;;;;;;15.95;10.23;;;;;;;;;;5105392;28;20066;-58
2023/10/20 09:46:19;;;;;;;12.50;9.93;;;;;;;;;;5106353;28;20069;-58
2023/10/20 09:48:47;;;;;;;13.30;9.80;;;;;;;;;;5105385;28;20036;-59
2023/10/20 09:51:15;;;;;;;12.85;10.07;;;;;;;;;;5100164;28;20036;-58
2023/10/20 09:53:43;;;;;;;13.25;9.25;;;;;;;;;;5105579;28;20047;-58
2023/10/20 09:56:10;;;;;;;12.05;8.80;;;;;;;;;;5106789;28;20031;-58
2023/10/20 09:58:37;;;;;;;10.85;7.18;;;;;;;;;;5105517;28;20077;-58
2023/10/20 10:01:03;;;;;;;9.68;7.40;;;;;;;;;;5105788;28;20051;-58
2023/10/20 10:03:37;;;;;;;9.02;6.32;;;;;;;;;;5106168;28;20036;-59
2023/10/20 10:06:09;;;;;;;8.90;6.80;;;;;;;;;;5084700;28;20049;-59
2023/10/20 10:08:41;;;;;;;7.60;6.68;;;;;;;;;;5105300;28;20046;-59
2023/10/20 10:11:26;;;;;;;10.50;6.38;;;;;;;;;;5106585;28;20031;-59
2023/10/20 10:14:01;;;;;;;8.65;6.70;;;;;;;;;;5104579;28;20513;-58
2023/10/20 10:16:27;;;;;;;7.55;6.10;;;;;;;;;;5106407;28;20028;-58
2023/10/20 10:18:56;;;;;;;8.00;6.40;;;;;;;;;;5105114;28;20089;-58
2023/10/20 10:21:23;;;;;;;;;;;;;;;;;;5106577;28;20046;-58
2023/10/20 10:24:13;;;;;;;7.07;5.90;;;;;;;;;;5104618;28;20306;-58
2023/10/20 10:26:56;;;;;;;6.07;5.15;;;;;;;;;;5102593;28;20051;-58
2023/10/20 10:29:53;;;;;;;6.82;5.35;;;;;;;;;;5081956;28;20118;-59
2023/10/20 10:32:21;;;;;;;6.63;5.15;;;;;;;;;;5104121;28;20039;-59
2023/10/20 10:34:49;;;;;;;4.78;4.07;;;;;;;;;;5101715;28;20047;-59
2023/10/20 10:37:25;;;;;;;6.57;4.32;;;;;;;;;;5084905;28;20042;-59
2023/10/20 10:39:51;;;;;;;4.82;4.10;;;;;;;;;;5109515;28;20036;-58
2023/10/20 10:42:19;;;;;;;4.05;3.65;;;;;;;;;;5110666;27;20051;-59
2023/10/20 10:44:45;;;;;;;4.40;3.72;;;;;;;;;;5109797;28;20486;-58
2023/10/20 10:47:22;;;;;;;5.30;2.90;;;;;;;;;;5103157;28;20048;-59
2023/10/20 10:49:49;;;;;;;4.72;2.60;;;;;;;;;;5108611;28;20499;-58
2023/10/20 10:52:16;;;;;;;4.25;2.30;;;;;;;;;;5111627;28;20039;-58
2023/10/20 10:54:43;;;;;;;3.50;2.40;;;;;;;;;;5108886;28;20035;-59
2023/10/20 10:57:09;;;;;;;4.22;2.20;;;;;;;;;;5090020;28;20027;-59
2023/10/20 10:59:36;;;;;;;2.40;2.10;;;;;;;;;;5106965;28;20046;-59
2023/10/20 11:02:05;;;;;;;6.78;2.50;;;;;;;;;;5106903;27;20052;-59
2023/10/20 11:04:31;;;;;;;2.83;1.80;;;;;;;;;;5105787;28;20495;-59
2023/10/20 11:06:57;;;;;;;1.70;1.60;;;;;;;;;;5110849;27;20047;-59
2023/10/20 11:09:27;;;;;;;2.33;1.80;;;;;;;;;;5110685;27;20440;-59
2023/10/20 11:11:53;;;;;;;2.20;1.65;;;;;;;;;;5103601;28;20427;-59
2023/10/20 11:14:23;;;;;;;2.67;1.45;;;;;;;;;;5113824;27;20047;-58
2023/10/20 11:16:49;;;;;;;2.35;1.45;;;;;;;;;;5112754;27;20071;-59
2023/10/20 11:19:17;;;;;;;2.08;1.40;;;;;;;;;;5112357;27;20055;-59
2023/10/20 11:21:48;;;;;;;2.45;1.35;;;;;;;;;;5111128;28;20051;-59
2023/10/20 11:24:34;;;;;;;1.20;1.10;;;;;;;;;;5096013;28;20028;-59
2023/10/20 11:27:11;;;;;;;1.33;1.10;;;;;;;;;;5106613;28;20035;-59
2023/10/20 11:29:37;;;;;;;2.33;1.27;;;;;;;;;;5105232;28;20427;-60
2023/10/20 11:32:13;;;;;;;2.40;1.35;;;;;;;;;;5102966;28;20047;-60
2023/10/20 11:34:39;;;;;;;1.45;0.85;;;;;;;;;;5102062;28;20039;-59
2023/10/20 11:37:07;;;;;;;1.42;0.80;;;;;;;;;;5082198;28;20043;-60
2023/10/20 11:39:36;;;;;;;1.25;0.90;;;;;;;;;;5107290;28;20495;-58
2023/10/20 11:42:03;;;;;;;2.70;1.98;;;;;;;;;;5108624;28;20028;-58
2023/10/20 11:44:30;;;;;;;1.95;0.60;;;;;;;;;;5109595;28;20032;-59
2023/10/20 11:46:56;;;;;;;0.70;0.52;;;;;;;;;;5108163;28;20090;-59
2023/10/20 11:49:26;;;;;;;1.10;0.80;;;;;;;;;;5091506;28;20043;-59
2023/10/20 11:51:53;;;;;;;2.10;0.50;;;;;;;;;;5108045;28;20036;-59
2023/10/20 11:54:19;;;;;;;5.05;0.60;;;;;;;;;;5108026;28;20410;-60
2023/10/20 11:56:45;;;;;;;0.95;0.40;;;;;;;;;;5107611;28;20510;-61
2023/10/20 11:59:15;;;;;;;0.98;0.50;;;;;;;;;;5109057;28;20039;-58
2023/10/20 12:01:42;;;;;;;0.70;0.43;;;;;;;;;;5108633;28;20049;-59
2023/10/20 12:04:11;;;;;;;0.75;0.30;;;;;;;;;;5107706;28;20031;-59
2023/10/20 12:06:37;;;;;;;;;;;;;;;;;;5102321;28;20050;-59
2023/10/20 12:09:16;;;;;;;0.35;0.30;;;;;;;;;;5107543;28;19911;-58
2023/10/20 12:11:43;;;;;;;0.77;0.68;;;;;;;;;;5104909;28;20423;-59
2023/10/20 12:14:09;;;;;;;3.85;0.20;;;;;;;;;;5107288;28;20407;-59
2023/10/20 12:16:35;;;;;;;2.45;0.38;;;;;;;;;;5108073;28;20040;-57
2023/10/20 12:19:02;;;;;;;4.35;0.73;;;;;;;;;;5089252;28;20047;-57
2023/10/20 12:21:29;;;;;;;4.93;1.02;;;;;;;;;;5109819;28;20042;-57
2023/10/20 12:23:56;;;;;;;1.15;0.35;;;;;;;;;;5107039;28;20035;-58
2023/10/20 12:26:22;;;;;;;0.43;0.30;;;;;;;;;;5108277;28;20042;-57
2023/10/20 12:28:50;;;;;;;2.08;0.80;;;;;;;;;;5108145;28;20024;-58
2023/10/20 12:31:16;;;;;;;1.05;0.28;;;;;;;;;;5102157;28;20507;-58
2023/10/20 12:33:45;;;;;;;0.40;0.40;;;;;;;;;;5099539;28;20044;-59
2023/10/20 12:36:16;;;;;;;0.63;0.30;;;;;;;;;;5108597;27;20442;-58
2023/10/20 12:38:43;;;;;;;0.25;0.20;;;;;;;;;;5114084;27;20285;-59
2023/10/20 12:41:10;;;;;;;0.70;0.20;;;;;;;;;;5089648;28;20043;-59
2023/10/20 12:43:37;;;;;;;1.83;0.30;;;;;;;;;;5107432;28;20032;-59
2023/10/20 12:46:04;;;;;;;0.17;0.10;;;;;;;;;;5105359;28;20529;-58
2023/10/20 12:48:30;;;;;;;0.60;0.30;;;;;;;;;;5107466;28;20051;-58
2023/10/20 12:50:57;;;;;;;0.55;0.40;;;;;;;;;;5107394;28;20050;-58
2023/10/20 12:53:23;;;;;;;0.10;0.10;;;;;;;;;;5107864;28;20039;-58
2023/10/20 12:55:53;;;;;;;3.03;0.30;;;;;;;;;;5106363;28;20498;-58
2023/10/20 12:58:20;;;;;;;0.10;0.10;;;;;;;;;;5108567;28;20383;-58
2023/10/20 13:00:46;;;;;;;0.17;0.10;;;;;;;;;;5108507;28;20038;-58
2023/10/20 13:03:12;;;;;;;0.10;0.10;;;;;;;;;;5104734;28;20035;-58
2023/10/20 13:05:38;;;;;;;0.52;0.20;;;;;;;;;;5106592;28;20033;-58
2023/10/20 13:08:04;;;;;;;0.10;0.10;;;;;;;;;;5105559;28;20064;-58
2023/10/20 13:10:31;;;;;;;1.85;0.30;;;;;;;;;;5105769;28;20097;-58
2023/10/20 13:12:57;;;;;;;0.20;0.20;;;;;;;;;;5106794;28;20032;-58
2023/10/20 13:15:24;;;;;;;0.15;0.15;;;;;;;;;;5105875;28;20054;-59
2023/10/20 13:17:51;;;;;;;0.25;0.10;;;;;;;;;;5105902;28;20044;-59
2023/10/20 13:20:17;;;;;;;0.20;0.20;;;;;;;;;;5108639;28;20031;-59
2023/10/20 13:22:43;;;;;;;0.32;0.32;;;;;;;;;;5107493;28;20032;-59
2023/10/20 13:25:09;;;;;;;1.38;0.30;;;;;;;;;;5105225;28;20395;-59
2023/10/20 13:27:35;;;;;;;0.60;0.38;;;;;;;;;;5083840;28;20048;-59
2023/10/20 13:30:03;;;;;;;1.17;0.20;;;;;;;;;;5080534;28;20034;-59
2023/10/20 13:32:29;;;;;;;1.98;0.40;;;;;;;;;;5107635;28;20051;-59
2023/10/20 13:34:55;;;;;;;0.55;0.20;;;;;;;;;;5104400;28;20035;-59
2023/10/20 13:37:22;;;;;;;0.65;0.35;;;;;;;;;;5100492;27;20043;-59
2023/10/20 13:39:48;;;;;;;1.33;0.70;;;;;;;;;;5105993;28;20052;-58
2023/10/20 13:42:14;;;;;;;1.42;0.30;;;;;;;;;;5108299;27;20031;-58
2023/10/20 13:44:40;;;;;;;1.27;0.20;;;;;;;;;;5104400;27;20035;-59
2023/10/20 13:47:06;;;;;;;0.32;0.25;;;;;;;;;;5096641;27;20039;-59
2023/10/20 13:49:32;;;;;;;0.77;0.40;;;;;;;;;;5107463;27;20027;-58
2023/10/20 13:51:59;;;;;;;0.73;0.25;;;;;;;;;;5105173;27;20040;-59
2023/10/20 13:54:27;;;;;;;0.55;0.30;;;;;;;;;;5111033;27;20038;-59
2023/10/20 13:56:53;;;;;;;0.70;0.50;;;;;;;;;;5102135;28;20031;-59
2023/10/20 13:59:20;;;;;;;0.40;0.38;;;;;;;;;;5104644;28;20039;-59
2023/10/20 14:01:46;;;;;;;1.08;0.60;;;;;;;;;;5107393;28;20486;-59
2023/10/20 14:04:12;;;;;;;1.65;1.05;;;;;;;;;;5106103;27;20031;-59
2023/10/20 14:06:38;;;;;;;0.25;0.20;;;;;;;;;;5100605;28;20062;-59
2023/10/20 14:09:04;;;;;;;0.40;0.30;;;;;;;;;;5105322;28;20050;-59
2023/10/20 14:11:31;;;;;;;1.30;0.30;;;;;;;;;;5106578;28;20062;-59
2023/10/20 14:13:57;;;;;;;1.33;0.60;;;;;;;;;;5105771;28;20032;-59
2023/10/20 14:16:23;;;;;;;0.30;0.30;;;;;;;;;;5102607;28;20048;-59
2023/10/20 14:18:49;;;;;;;0.82;0.40;;;;;;;;;;5085675;28;20036;-59
2023/10/20 14:21:15;;;;;;;0.47;0.32;;;;;;;;;;5097989;28;20046;-59
2023/10/20 14:23:41;;;;;;;0.30;0.22;;;;;;;;;;5088424;28;20036;-59
2023/10/20 14:26:07;;;;;;;0.45;0.30;;;;;;;;;;5095788;28;20644;-59
2023/10/20 14:28:33;;;;;;;2.05;0.30;;;;;;;;;;5096202;28;20032;-59
2023/10/20 14:31:04;;;;;;;0.65;0.30;;;;;;;;;;5104175;28;20438;-57
2023/10/20 14:33:30;;;;;;;1.00;0.20;;;;;;;;;;5105104;28;20459;-59
2023/10/20 14:35:57;;;;;;;1.38;0.32;;;;;;;;;;5085749;28;20408;-58
2023/10/20 14:38:26;;;;;;;0.52;0.30;;;;;;;;;;5088186;28;20031;-60
2023/10/20 14:41:03;;;;;;;0.60;0.30;;;;;;;;;;5104587;28;20023;-58
2023/10/20 14:43:35;;;;;;;1.95;0.35;;;;;;;;;;5107305;28;20494;-59
2023/10/20 14:46:03;;;;;;;1.70;0.30;;;;;;;;;;5104109;28;20027;-59
2023/10/20 14:48:30;;;;;;;0.70;0.50;;;;;;;;;;5105887;28;20519;-59
2023/10/20 14:50:58;;;;;;;1.92;0.55;;;;;;;;;;5084752;28;20071;-59
2023/10/20 14:53:25;;;;;;;1.17;0.57;;;;;;;;;;5088312;28;20027;-59
2023/10/20 14:55:51;;;;;;;1.00;0.40;;;;;;;;;;5078882;28;20032;-60
2023/10/20 14:58:18;;;;;;;0.90;0.30;;;;;;;;;;5108101;28;20043;-60
2023/10/20 15:00:45;;;;;;;3.17;0.75;;;;;;;;;;5092440;28;20037;-59
2023/10/20 15:03:11;;;;;;;0.75;0.40;;;;;;;;;;5102325;28;20055;-60
2023/10/20 15:05:38;;;;;;;1.15;0.50;;;;;;;;;;5098027;28;20048;-60
2023/10/20 15:08:04;;;;;;;1.10;0.40;;;;;;;;;;5101473;28;20032;-60
2023/10/20 15:10:30;;;;;;;0.90;0.40;;;;;;;;;;5102756;28;20042;-59
2023/10/20 15:12:57;;;;;;;1.73;0.38;;;;;;;;;;5104603;28;20035;-60